sensor_id;sensor_type;location;lat;lon;timestamp;temperature;humidity
67077;DHT22;53991;46.364;17.008;2022-07-05T00:01:41;19.50;99.90
67077;DHT22;53991;46.364;17.008;2022-07-05T00:04:43;19.50;99.90
67077;DHT22;53991;46.364;17.008;2022-07-05T00:07:46;19.40;99.90
67077;DHT22;53991;46.364;17.008;2022-07-05T00:10:48;19.50;99.90
67077;DHT22;53991;46.364;17.008;2022-07-05T00:13:51;19.50;99.90
67077;DHT22;53991;46.364;17.008;2022-07-05T00:16:53;19.50;99.90
67077;DHT22;53991;46.364;17.008;2022-07-05T00:19:55;19.30;99.90
67077;DHT22;53991;46.364;17.008;2022-07-05T00:22:57;19.20;99.90
67077;DHT22;53991;46.364;17.008;2022-07-05T00:25:58;19.10;99.90
67077;DHT22;53991;46.364;17.008;2022-07-05T00:29:00;19.20;99.90
67077;DHT22;53991;46.364;17.008;2022-07-05T00:32:02;19.20;99.90
67077;DHT22;53991;46.364;17.008;2022-07-05T00:35:05;19.10;99.90
67077;DHT22;53991;46.364;17.008;2022-07-05T00:38:08;19.10;99.90
67077;DHT22;53991;46.364;17.008;2022-07-05T00:41:10;19.10;99.90
67077;DHT22;53991;46.364;17.008;2022-07-05T00:44:12;19.00;99.90
67077;DHT22;53991;46.364;17.008;2022-07-05T00:47:14;18.90;99.90
67077;DHT22;53991;46.364;17.008;2022-07-05T00:50:16;18.80;99.90
67077;DHT22;53991;46.364;17.008;2022-07-05T00:53:18;18.90;99.90
67077;DHT22;53991;46.364;17.008;2022-07-05T00:56:20;18.90;99.90
67077;DHT22;53991;46.364;17.008;2022-07-05T00:59:25;18.80;99.90
67077;DHT22;53991;46.364;17.008;2022-07-05T01:02:27;18.80;99.90
67077;DHT22;53991;46.364;17.008;2022-07-05T01:05:29;18.80;99.90
67077;DHT22;53991;46.364;17.008;2022-07-05T01:08:35;18.80;99.90
67077;DHT22;53991;46.364;17.008;2022-07-05T01:11:37;18.90;99.90
67077;DHT22;53991;46.364;17.008;2022-07-05T01:14:41;18.90;99.90
67077;DHT22;53991;46.364;17.008;2022-07-05T01:17:43;18.80;99.90
67077;DHT22;53991;46.364;17.008;2022-07-05T01:20:48;18.80;99.90
67077;DHT22;53991;46.364;17.008;2022-07-05T01:23:50;18.80;99.90
67077;DHT22;53991;46.364;17.008;2022-07-05T01:26:52;18.90;99.90
67077;DHT22;53991;46.364;17.008;2022-07-05T01:29:54;19.00;99.90
67077;DHT22;53991;46.364;17.008;2022-07-05T01:32:56;19.20;99.90
67077;DHT22;53991;46.364;17.008;2022-07-05T01:35:58;19.20;99.90
67077;DHT22;53991;46.364;17.008;2022-07-05T01:39:05;19.50;99.90
67077;DHT22;53991;46.364;17.008;2022-07-05T01:42:07;19.70;99.90
67077;DHT22;53991;46.364;17.008;2022-07-05T01:45:11;19.80;99.90
67077;DHT22;53991;46.364;17.008;2022-07-05T01:48:15;19.80;99.90
67077;DHT22;53991;46.364;17.008;2022-07-05T01:51:25;19.70;99.90
67077;DHT22;53991;46.364;17.008;2022-07-05T01:54:28;19.70;99.90
67077;DHT22;53991;46.364;17.008;2022-07-05T01:57:30;19.50;99.90
67077;DHT22;53991;46.364;17.008;2022-07-05T02:00:45;19.50;99.90
67077;DHT22;53991;46.364;17.008;2022-07-05T02:03:47;19.50;99.90
67077;DHT22;53991;46.364;17.008;2022-07-05T02:06:59;19.50;99.90
67077;DHT22;53991;46.364;17.008;2022-07-05T02:10:01;19.50;99.90
67077;DHT22;53991;46.364;17.008;2022-07-05T02:13:06;19.50;99.90
67077;DHT22;53991;46.364;17.008;2022-07-05T02:16:09;19.40;99.90
67077;DHT22;53991;46.364;17.008;2022-07-05T02:19:11;19.40;99.90
67077;DHT22;53991;46.364;17.008;2022-07-05T02:22:13;19.30;99.90
67077;DHT22;53991;46.364;17.008;2022-07-05T02:25:15;19.30;99.90
67077;DHT22;53991;46.364;17.008;2022-07-05T02:28:16;19.40;99.90
67077;DHT22;53991;46.364;17.008;2022-07-05T02:31:18;19.40;99.90
67077;DHT22;53991;46.364;17.008;2022-07-05T02:34:20;19.50;99.90
67077;DHT22;53991;46.364;17.008;2022-07-05T02:37:22;19.50;99.90
67077;DHT22;53991;46.364;17.008;2022-07-05T02:40:24;19.50;99.90
67077;DHT22;53991;46.364;17.008;2022-07-05T02:43:26;19.50;99.90
67077;DHT22;53991;46.364;17.008;2022-07-05T02:46:28;19.40;99.90
67077;DHT22;53991;46.364;17.008;2022-07-05T02:49:30;19.50;99.90
67077;DHT22;53991;46.364;17.008;2022-07-05T02:52:33;19.60;99.90
67077;DHT22;53991;46.364;17.008;2022-07-05T02:55:35;19.60;99.90
67077;DHT22;53991;46.364;17.008;2022-07-05T02:58:37;19.50;99.90
67077;DHT22;53991;46.364;17.008;2022-07-05T03:01:39;19.60;99.90
67077;DHT22;53991;46.364;17.008;2022-07-05T03:04:41;19.70;99.90
67077;DHT22;53991;46.364;17.008;2022-07-05T03:07:44;19.70;99.90
67077;DHT22;53991;46.364;17.008;2022-07-05T03:10:46;19.70;99.90
67077;DHT22;53991;46.364;17.008;2022-07-05T03:13:48;19.60;99.90
67077;DHT22;53991;46.364;17.008;2022-07-05T03:16:50;19.70;99.90
67077;DHT22;53991;46.364;17.008;2022-07-05T03:19:52;19.80;99.90
67077;DHT22;53991;46.364;17.008;2022-07-05T03:22:54;19.90;99.90
67077;DHT22;53991;46.364;17.008;2022-07-05T03:25:56;19.90;99.90
67077;DHT22;53991;46.364;17.008;2022-07-05T03:28:58;19.80;99.90
67077;DHT22;53991;46.364;17.008;2022-07-05T03:32:00;20.00;99.90
67077;DHT22;53991;46.364;17.008;2022-07-05T03:35:02;20.10;99.90
67077;DHT22;53991;46.364;17.008;2022-07-05T03:38:04;20.10;99.90
67077;DHT22;53991;46.364;17.008;2022-07-05T03:41:06;20.20;99.90
67077;DHT22;53991;46.364;17.008;2022-07-05T03:44:08;20.20;99.90
67077;DHT22;53991;46.364;17.008;2022-07-05T03:47:10;20.20;99.90
67077;DHT22;53991;46.364;17.008;2022-07-05T03:50:12;20.10;99.90
67077;DHT22;53991;46.364;17.008;2022-07-05T03:53:14;20.00;99.90
67077;DHT22;53991;46.364;17.008;2022-07-05T03:56:16;20.00;99.90
67077;DHT22;53991;46.364;17.008;2022-07-05T03:59:18;19.90;99.90
67077;DHT22;53991;46.364;17.008;2022-07-05T04:02:20;19.90;99.90
67077;DHT22;53991;46.364;17.008;2022-07-05T04:05:22;19.80;99.90
67077;DHT22;53991;46.364;17.008;2022-07-05T04:08:24;20.00;99.90
67077;DHT22;53991;46.364;17.008;2022-07-05T04:11:26;20.00;99.90
67077;DHT22;53991;46.364;17.008;2022-07-05T04:14:29;20.10;99.90
67077;DHT22;53991;46.364;17.008;2022-07-05T04:17:31;20.00;99.90
67077;DHT22;53991;46.364;17.008;2022-07-05T04:20:33;20.10;99.90
67077;DHT22;53991;46.364;17.008;2022-07-05T04:23:35;20.20;99.90
67077;DHT22;53991;46.364;17.008;2022-07-05T04:26:37;20.20;99.90
67077;DHT22;53991;46.364;17.008;2022-07-05T04:29:39;20.10;99.90
67077;DHT22;53991;46.364;17.008;2022-07-05T04:32:42;19.90;99.90
67077;DHT22;53991;46.364;17.008;2022-07-05T04:35:44;19.80;99.90
67077;DHT22;53991;46.364;17.008;2022-07-05T04:38:46;19.90;99.90
67077;DHT22;53991;46.364;17.008;2022-07-05T04:41:48;19.90;99.90
67077;DHT22;53991;46.364;17.008;2022-07-05T04:44:50;19.90;99.90
67077;DHT22;53991;46.364;17.008;2022-07-05T04:47:52;19.80;99.90
67077;DHT22;53991;46.364;17.008;2022-07-05T04:50:54;20.00;99.90
67077;DHT22;53991;46.364;17.008;2022-07-05T04:53:56;19.90;99.90
67077;DHT22;53991;46.364;17.008;2022-07-05T04:56:58;20.00;99.90
67077;DHT22;53991;46.364;17.008;2022-07-05T05:00:00;20.00;99.90
67077;DHT22;53991;46.364;17.008;2022-07-05T05:03:02;20.00;99.90
67077;DHT22;53991;46.364;17.008;2022-07-05T05:06:04;19.90;99.90
67077;DHT22;53991;46.364;17.008;2022-07-05T05:09:06;19.90;99.90
67077;DHT22;53991;46.364;17.008;2022-07-05T05:12:08;19.80;99.90
67077;DHT22;53991;46.364;17.008;2022-07-05T05:15:10;19.70;99.90
67077;DHT22;53991;46.364;17.008;2022-07-05T05:18:12;19.70;99.90
67077;DHT22;53991;46.364;17.008;2022-07-05T05:21:14;19.60;99.90
67077;DHT22;53991;46.364;17.008;2022-07-05T05:24:16;19.50;99.90
67077;DHT22;53991;46.364;17.008;2022-07-05T05:27:18;19.50;99.90
67077;DHT22;53991;46.364;17.008;2022-07-05T05:30:20;19.40;99.90
67077;DHT22;53991;46.364;17.008;2022-07-05T05:33:22;19.30;99.90
67077;DHT22;53991;46.364;17.008;2022-07-05T05:36:28;19.40;99.90
67077;DHT22;53991;46.364;17.008;2022-07-05T05:39:30;19.20;99.90
67077;DHT22;53991;46.364;17.008;2022-07-05T05:42:32;19.20;99.90
67077;DHT22;53991;46.364;17.008;2022-07-05T05:45:34;19.20;99.90
67077;DHT22;53991;46.364;17.008;2022-07-05T05:48:36;19.10;99.90
67077;DHT22;53991;46.364;17.008;2022-07-05T05:51:38;19.00;99.90
67077;DHT22;53991;46.364;17.008;2022-07-05T05:54:40;19.00;99.90
67077;DHT22;53991;46.364;17.008;2022-07-05T05:57:42;18.90;99.90
67077;DHT22;53991;46.364;17.008;2022-07-05T06:00:44;18.90;99.90
67077;DHT22;53991;46.364;17.008;2022-07-05T06:03:46;18.90;99.90
67077;DHT22;53991;46.364;17.008;2022-07-05T06:06:48;18.90;99.90
67077;DHT22;53991;46.364;17.008;2022-07-05T06:09:50;18.90;99.90
67077;DHT22;53991;46.364;17.008;2022-07-05T06:12:53;18.90;99.90
67077;DHT22;53991;46.364;17.008;2022-07-05T06:15:55;18.80;99.90
67077;DHT22;53991;46.364;17.008;2022-07-05T06:18:57;18.70;99.90
67077;DHT22;53991;46.364;17.008;2022-07-05T06:21:59;18.60;99.90
67077;DHT22;53991;46.364;17.008;2022-07-05T06:25:02;18.60;99.90
67077;DHT22;53991;46.364;17.008;2022-07-05T06:28:24;18.60;99.90
67077;DHT22;53991;46.364;17.008;2022-07-05T06:31:26;18.60;99.90
67077;DHT22;53991;46.364;17.008;2022-07-05T06:34:28;18.70;99.90
67077;DHT22;53991;46.364;17.008;2022-07-05T06:37:48;18.60;99.90
67077;DHT22;53991;46.364;17.008;2022-07-05T06:40:50;18.60;99.90
67077;DHT22;53991;46.364;17.008;2022-07-05T06:43:51;18.70;99.90
67077;DHT22;53991;46.364;17.008;2022-07-05T06:46:53;18.70;99.90
67077;DHT22;53991;46.364;17.008;2022-07-05T06:49:57;18.60;99.90
67077;DHT22;53991;46.364;17.008;2022-07-05T06:52:59;18.60;99.90
67077;DHT22;53991;46.364;17.008;2022-07-05T06:56:01;18.50;99.90
67077;DHT22;53991;46.364;17.008;2022-07-05T06:59:03;18.50;99.90
67077;DHT22;53991;46.364;17.008;2022-07-05T07:02:09;18.50;99.90
67077;DHT22;53991;46.364;17.008;2022-07-05T07:05:27;18.60;99.90
67077;DHT22;53991;46.364;17.008;2022-07-05T07:08:31;18.70;99.90
67077;DHT22;53991;46.364;17.008;2022-07-05T07:11:33;18.70;99.90
67077;DHT22;53991;46.364;17.008;2022-07-05T07:14:35;18.70;99.90
67077;DHT22;53991;46.364;17.008;2022-07-05T07:17:37;18.70;99.90
67077;DHT22;53991;46.364;17.008;2022-07-05T07:20:39;18.80;99.90
67077;DHT22;53991;46.364;17.008;2022-07-05T07:23:41;18.90;99.90
67077;DHT22;53991;46.364;17.008;2022-07-05T07:26:43;18.90;99.90
67077;DHT22;53991;46.364;17.008;2022-07-05T07:29:45;18.90;99.90
67077;DHT22;53991;46.364;17.008;2022-07-05T07:32:48;18.70;99.90
67077;DHT22;53991;46.364;17.008;2022-07-05T07:35:50;18.70;99.90
67077;DHT22;53991;46.364;17.008;2022-07-05T07:38:52;18.70;99.90
67077;DHT22;53991;46.364;17.008;2022-07-05T07:41:53;18.70;99.90
67077;DHT22;53991;46.364;17.008;2022-07-05T07:44:55;18.80;99.90
67077;DHT22;53991;46.364;17.008;2022-07-05T07:47:57;18.70;99.90
67077;DHT22;53991;46.364;17.008;2022-07-05T07:50:59;18.70;99.90
67077;DHT22;53991;46.364;17.008;2022-07-05T07:54:01;18.70;99.90
67077;DHT22;53991;46.364;17.008;2022-07-05T07:57:03;18.80;99.90
67077;DHT22;53991;46.364;17.008;2022-07-05T08:00:06;18.80;99.90
67077;DHT22;53991;46.364;17.008;2022-07-05T08:03:08;18.90;99.90
67077;DHT22;53991;46.364;17.008;2022-07-05T08:06:11;19.10;99.90
67077;DHT22;53991;46.364;17.008;2022-07-05T08:09:13;19.20;99.90
67077;DHT22;53991;46.364;17.008;2022-07-05T08:12:19;19.40;99.90
67077;DHT22;53991;46.364;17.008;2022-07-05T08:15:21;19.60;99.90
67077;DHT22;53991;46.364;17.008;2022-07-05T08:18:23;19.90;99.90
67077;DHT22;53991;46.364;17.008;2022-07-05T08:21:25;20.00;99.90
67077;DHT22;53991;46.364;17.008;2022-07-05T08:24:28;20.10;99.90
67077;DHT22;53991;46.364;17.008;2022-07-05T08:27:30;20.20;99.90
67077;DHT22;53991;46.364;17.008;2022-07-05T08:30:32;20.30;99.90
67077;DHT22;53991;46.364;17.008;2022-07-05T08:33:34;20.40;99.90
67077;DHT22;53991;46.364;17.008;2022-07-05T08:36:36;20.30;99.90
67077;DHT22;53991;46.364;17.008;2022-07-05T08:39:39;20.40;99.90
67077;DHT22;53991;46.364;17.008;2022-07-05T08:42:41;20.40;99.90
67077;DHT22;53991;46.364;17.008;2022-07-05T08:45:45;20.60;99.90
67077;DHT22;53991;46.364;17.008;2022-07-05T08:48:49;20.80;99.90
67077;DHT22;53991;46.364;17.008;2022-07-05T08:51:53;20.70;99.90
67077;DHT22;53991;46.364;17.008;2022-07-05T08:54:55;20.80;99.90
67077;DHT22;53991;46.364;17.008;2022-07-05T08:57:59;20.90;99.90
67077;DHT22;53991;46.364;17.008;2022-07-05T09:01:02;20.80;99.90
67077;DHT22;53991;46.364;17.008;2022-07-05T09:04:05;20.90;99.90
67077;DHT22;53991;46.364;17.008;2022-07-05T09:07:08;20.90;99.90
67077;DHT22;53991;46.364;17.008;2022-07-05T09:10:11;20.80;99.90
67077;DHT22;53991;46.364;17.008;2022-07-05T09:13:13;20.90;99.90
67077;DHT22;53991;46.364;17.008;2022-07-05T09:16:16;21.10;99.90
67077;DHT22;53991;46.364;17.008;2022-07-05T09:19:19;21.10;99.90
67077;DHT22;53991;46.364;17.008;2022-07-05T09:22:21;21.20;99.90
67077;DHT22;53991;46.364;17.008;2022-07-05T09:25:31;21.30;99.90
67077;DHT22;53991;46.364;17.008;2022-07-05T09:28:33;21.40;99.90
67077;DHT22;53991;46.364;17.008;2022-07-05T09:31:40;21.40;99.90
67077;DHT22;53991;46.364;17.008;2022-07-05T09:34:42;21.70;99.90
67077;DHT22;53991;46.364;17.008;2022-07-05T09:37:44;21.80;99.90
67077;DHT22;53991;46.364;17.008;2022-07-05T09:43:49;22.00;99.90
67077;DHT22;53991;46.364;17.008;2022-07-05T09:47:07;22.10;99.90
67077;DHT22;53991;46.364;17.008;2022-07-05T09:50:09;22.30;99.90
67077;DHT22;53991;46.364;17.008;2022-07-05T09:53:12;22.40;99.90
67077;DHT22;53991;46.364;17.008;2022-07-05T09:56:15;22.40;99.90
67077;DHT22;53991;46.364;17.008;2022-07-05T09:59:20;22.80;99.90
67077;DHT22;53991;46.364;17.008;2022-07-05T10:02:34;22.90;99.90
67077;DHT22;53991;46.364;17.008;2022-07-05T10:05:36;22.60;99.90
67077;DHT22;53991;46.364;17.008;2022-07-05T10:08:39;22.60;99.90
67077;DHT22;53991;46.364;17.008;2022-07-05T10:11:43;23.00;99.90
67077;DHT22;53991;46.364;17.008;2022-07-05T10:14:45;23.20;99.90
67077;DHT22;53991;46.364;17.008;2022-07-05T10:17:54;23.50;99.90
67077;DHT22;53991;46.364;17.008;2022-07-05T10:20:59;23.70;99.90
67077;DHT22;53991;46.364;17.008;2022-07-05T10:24:03;24.10;99.90
67077;DHT22;53991;46.364;17.008;2022-07-05T10:27:07;24.00;99.90
67077;DHT22;53991;46.364;17.008;2022-07-05T10:30:10;24.10;99.90
67077;DHT22;53991;46.364;17.008;2022-07-05T10:33:13;24.40;99.90
67077;DHT22;53991;46.364;17.008;2022-07-05T10:36:15;24.80;99.90
67077;DHT22;53991;46.364;17.008;2022-07-05T10:39:17;24.50;99.90
67077;DHT22;53991;46.364;17.008;2022-07-05T10:42:19;24.20;99.90
67077;DHT22;53991;46.364;17.008;2022-07-05T10:48:28;23.80;99.90
67077;DHT22;53991;46.364;17.008;2022-07-05T10:51:35;23.60;99.90
67077;DHT22;53991;46.364;17.008;2022-07-05T11:04:25;25.80;99.90
67077;DHT22;53991;46.364;17.008;2022-07-05T11:08:02;26.50;99.90
67077;DHT22;53991;46.364;17.008;2022-07-05T11:11:11;26.70;99.90
67077;DHT22;53991;46.364;17.008;2022-07-05T11:17:22;27.20;99.90
67077;DHT22;53991;46.364;17.008;2022-07-05T11:20:44;27.00;99.90
67077;DHT22;53991;46.364;17.008;2022-07-05T11:23:47;27.70;99.90
67077;DHT22;53991;46.364;17.008;2022-07-05T11:26:51;28.20;99.90
67077;DHT22;53991;46.364;17.008;2022-07-05T11:29:54;28.10;99.60
67077;DHT22;53991;46.364;17.008;2022-07-05T11:32:58;28.00;99.80
67077;DHT22;53991;46.364;17.008;2022-07-05T11:36:01;27.40;99.90
67077;DHT22;53991;46.364;17.008;2022-07-05T11:39:15;28.10;97.90
67077;DHT22;53991;46.364;17.008;2022-07-05T11:42:21;28.80;99.90
67077;DHT22;53991;46.364;17.008;2022-07-05T11:45:23;29.50;97.50
67077;DHT22;53991;46.364;17.008;2022-07-05T11:48:26;29.50;95.80
67077;DHT22;53991;46.364;17.008;2022-07-05T11:51:28;27.90;96.40
67077;DHT22;53991;46.364;17.008;2022-07-05T11:54:32;28.50;99.30
67077;DHT22;53991;46.364;17.008;2022-07-05T11:57:35;29.30;98.30
67077;DHT22;53991;46.364;17.008;2022-07-05T12:00:37;29.70;94.70
67077;DHT22;53991;46.364;17.008;2022-07-05T12:03:39;29.70;94.60
67077;DHT22;53991;46.364;17.008;2022-07-05T12:06:42;29.60;94.40
67077;DHT22;53991;46.364;17.008;2022-07-05T12:09:44;28.80;95.70
67077;DHT22;53991;46.364;17.008;2022-07-05T12:12:46;28.00;96.00
67077;DHT22;53991;46.364;17.008;2022-07-05T12:15:48;27.00;98.30
67077;DHT22;53991;46.364;17.008;2022-07-05T12:18:55;27.40;97.80
67077;DHT22;53991;46.364;17.008;2022-07-05T12:21:57;27.30;98.50
67077;DHT22;53991;46.364;17.008;2022-07-05T12:25:01;27.10;97.60
67077;DHT22;53991;46.364;17.008;2022-07-05T12:28:04;28.20;99.90
67077;DHT22;53991;46.364;17.008;2022-07-05T12:31:21;28.90;95.20
67077;DHT22;53991;46.364;17.008;2022-07-05T12:34:24;28.70;97.40
67077;DHT22;53991;46.364;17.008;2022-07-05T12:37:27;28.70;97.00
67077;DHT22;53991;46.364;17.008;2022-07-05T12:40:29;28.80;96.60
67077;DHT22;53991;46.364;17.008;2022-07-05T12:43:32;28.60;96.40
67077;DHT22;53991;46.364;17.008;2022-07-05T12:46:38;29.20;96.60
67077;DHT22;53991;46.364;17.008;2022-07-05T12:49:54;29.90;97.00
67077;DHT22;53991;46.364;17.008;2022-07-05T12:53:02;30.40;95.30
67077;DHT22;53991;46.364;17.008;2022-07-05T12:56:06;29.30;95.00
67077;DHT22;53991;46.364;17.008;2022-07-05T12:59:09;29.40;94.80
67077;DHT22;53991;46.364;17.008;2022-07-05T13:02:11;29.40;94.00
67077;DHT22;53991;46.364;17.008;2022-07-05T13:05:24;29.00;95.20
67077;DHT22;53991;46.364;17.008;2022-07-05T13:08:29;29.20;92.60
67077;DHT22;53991;46.364;17.008;2022-07-05T13:11:32;28.20;93.80
67077;DHT22;53991;46.364;17.008;2022-07-05T13:14:34;27.70;94.00
67077;DHT22;53991;46.364;17.008;2022-07-05T13:17:36;27.70;93.90
67077;DHT22;53991;46.364;17.008;2022-07-05T13:20:38;27.30;94.10
67077;DHT22;53991;46.364;17.008;2022-07-05T13:23:40;27.20;95.00
67077;DHT22;53991;46.364;17.008;2022-07-05T13:26:42;27.50;95.20
67077;DHT22;53991;46.364;17.008;2022-07-05T13:29:44;27.40;95.30
67077;DHT22;53991;46.364;17.008;2022-07-05T13:32:46;27.70;96.00
67077;DHT22;53991;46.364;17.008;2022-07-05T13:35:48;28.70;94.60
67077;DHT22;53991;46.364;17.008;2022-07-05T13:38:50;29.00;92.60
67077;DHT22;53991;46.364;17.008;2022-07-05T13:41:53;28.80;92.70
67077;DHT22;53991;46.364;17.008;2022-07-05T13:44:55;28.00;93.30
67077;DHT22;53991;46.364;17.008;2022-07-05T13:47:57;27.40;95.80
67077;DHT22;53991;46.364;17.008;2022-07-05T13:50:59;27.90;93.70
67077;DHT22;53991;46.364;17.008;2022-07-05T13:54:02;28.30;93.20
67077;DHT22;53991;46.364;17.008;2022-07-05T13:57:04;29.30;94.20
67077;DHT22;53991;46.364;17.008;2022-07-05T14:00:07;29.70;93.30
67077;DHT22;53991;46.364;17.008;2022-07-05T14:03:09;29.60;92.10
67077;DHT22;53991;46.364;17.008;2022-07-05T14:06:11;29.40;89.50
67077;DHT22;53991;46.364;17.008;2022-07-05T14:09:13;29.10;89.30
67077;DHT22;53991;46.364;17.008;2022-07-05T14:12:14;28.90;88.50
67077;DHT22;53991;46.364;17.008;2022-07-05T14:15:16;29.00;89.30
67077;DHT22;53991;46.364;17.008;2022-07-05T14:18:20;27.90;89.00
67077;DHT22;53991;46.364;17.008;2022-07-05T14:21:22;28.80;86.60
67077;DHT22;53991;46.364;17.008;2022-07-05T14:24:38;28.70;86.90
67077;DHT22;53991;46.364;17.008;2022-07-05T14:27:40;28.60;85.50
67077;DHT22;53991;46.364;17.008;2022-07-05T14:30:43;28.20;87.70
67077;DHT22;53991;46.364;17.008;2022-07-05T14:33:45;28.50;88.80
67077;DHT22;53991;46.364;17.008;2022-07-05T14:36:48;28.70;91.10
67077;DHT22;53991;46.364;17.008;2022-07-05T14:39:50;28.60;88.10
67077;DHT22;53991;46.364;17.008;2022-07-05T14:42:52;28.50;90.20
67077;DHT22;53991;46.364;17.008;2022-07-05T14:45:55;28.80;90.70
67077;DHT22;53991;46.364;17.008;2022-07-05T14:48:57;28.70;90.00
67077;DHT22;53991;46.364;17.008;2022-07-05T14:51:59;29.00;90.10
67077;DHT22;53991;46.364;17.008;2022-07-05T14:55:01;28.80;90.40
67077;DHT22;53991;46.364;17.008;2022-07-05T14:58:03;28.90;90.20
67077;DHT22;53991;46.364;17.008;2022-07-05T15:01:05;28.80;89.20
67077;DHT22;53991;46.364;17.008;2022-07-05T15:04:07;28.80;89.00
67077;DHT22;53991;46.364;17.008;2022-07-05T15:07:09;28.60;90.10
67077;DHT22;53991;46.364;17.008;2022-07-05T15:10:11;28.80;90.60
67077;DHT22;53991;46.364;17.008;2022-07-05T15:13:13;28.80;90.10
67077;DHT22;53991;46.364;17.008;2022-07-05T15:16:15;28.90;90.10
67077;DHT22;53991;46.364;17.008;2022-07-05T15:19:17;28.70;88.50
67077;DHT22;53991;46.364;17.008;2022-07-05T15:22:19;28.50;89.50
67077;DHT22;53991;46.364;17.008;2022-07-05T15:25:21;28.30;90.40
67077;DHT22;53991;46.364;17.008;2022-07-05T15:28:23;28.20;90.00
67077;DHT22;53991;46.364;17.008;2022-07-05T15:31:30;28.10;90.70
67077;DHT22;53991;46.364;17.008;2022-07-05T15:34:32;28.30;88.90
67077;DHT22;53991;46.364;17.008;2022-07-05T15:37:34;28.00;90.70
67077;DHT22;53991;46.364;17.008;2022-07-05T15:40:36;28.00;91.70
67077;DHT22;53991;46.364;17.008;2022-07-05T15:43:38;28.10;91.60
67077;DHT22;53991;46.364;17.008;2022-07-05T15:46:40;28.30;90.00
67077;DHT22;53991;46.364;17.008;2022-07-05T15:49:42;27.90;91.70
67077;DHT22;53991;46.364;17.008;2022-07-05T15:52:44;28.20;91.20
67077;DHT22;53991;46.364;17.008;2022-07-05T15:55:46;27.70;91.20
67077;DHT22;53991;46.364;17.008;2022-07-05T15:58:48;27.70;91.10
67077;DHT22;53991;46.364;17.008;2022-07-05T16:01:50;27.50;90.40
67077;DHT22;53991;46.364;17.008;2022-07-05T16:04:52;27.30;91.00
67077;DHT22;53991;46.364;17.008;2022-07-05T16:07:54;27.40;91.40
67077;DHT22;53991;46.364;17.008;2022-07-05T16:10:56;27.20;90.90
67077;DHT22;53991;46.364;17.008;2022-07-05T16:13:58;26.90;91.70
67077;DHT22;53991;46.364;17.008;2022-07-05T16:17:00;26.80;91.30
67077;DHT22;53991;46.364;17.008;2022-07-05T16:20:03;26.70;92.30
67077;DHT22;53991;46.364;17.008;2022-07-05T16:23:05;26.80;93.40
67077;DHT22;53991;46.364;17.008;2022-07-05T16:26:08;26.90;93.70
67077;DHT22;53991;46.364;17.008;2022-07-05T16:29:10;26.90;93.40
67077;DHT22;53991;46.364;17.008;2022-07-05T16:35:15;26.80;92.80
67077;DHT22;53991;46.364;17.008;2022-07-05T16:38:17;26.70;93.90
67077;DHT22;53991;46.364;17.008;2022-07-05T16:41:19;26.80;93.40
67077;DHT22;53991;46.364;17.008;2022-07-05T16:44:21;26.80;93.20
67077;DHT22;53991;46.364;17.008;2022-07-05T16:47:23;26.70;93.10
67077;DHT22;53991;46.364;17.008;2022-07-05T16:50:25;26.40;92.30
67077;DHT22;53991;46.364;17.008;2022-07-05T16:53:28;26.10;92.80
67077;DHT22;53991;46.364;17.008;2022-07-05T16:56:30;26.00;92.20
67077;DHT22;53991;46.364;17.008;2022-07-05T16:59:32;25.90;92.10
67077;DHT22;53991;46.364;17.008;2022-07-05T17:02:34;25.80;93.10
67077;DHT22;53991;46.364;17.008;2022-07-05T17:05:36;25.70;92.60
67077;DHT22;53991;46.364;17.008;2022-07-05T17:08:39;25.60;92.80
67077;DHT22;53991;46.364;17.008;2022-07-05T17:11:41;25.50;92.90
67077;DHT22;53991;46.364;17.008;2022-07-05T17:14:43;25.40;92.00
67077;DHT22;53991;46.364;17.008;2022-07-05T17:17:45;25.30;92.80
67077;DHT22;53991;46.364;17.008;2022-07-05T17:20:47;25.20;92.50
67077;DHT22;53991;46.364;17.008;2022-07-05T17:23:49;25.10;92.60
67077;DHT22;53991;46.364;17.008;2022-07-05T17:26:51;25.00;92.40
67077;DHT22;53991;46.364;17.008;2022-07-05T17:29:53;24.80;92.20
67077;DHT22;53991;46.364;17.008;2022-07-05T17:32:55;24.80;92.90
67077;DHT22;53991;46.364;17.008;2022-07-05T17:36:01;24.70;93.40
67077;DHT22;53991;46.364;17.008;2022-07-05T17:39:03;24.70;93.20
67077;DHT22;53991;46.364;17.008;2022-07-05T17:42:05;24.70;93.00
67077;DHT22;53991;46.364;17.008;2022-07-05T17:45:07;24.60;93.60
67077;DHT22;53991;46.364;17.008;2022-07-05T17:48:10;24.50;94.50
67077;DHT22;53991;46.364;17.008;2022-07-05T17:51:12;24.30;95.10
67077;DHT22;53991;46.364;17.008;2022-07-05T17:54:18;24.10;95.20
67077;DHT22;53991;46.364;17.008;2022-07-05T17:57:20;23.90;96.00
67077;DHT22;53991;46.364;17.008;2022-07-05T18:00:22;23.80;96.30
67077;DHT22;53991;46.364;17.008;2022-07-05T18:03:24;23.60;98.20
67077;DHT22;53991;46.364;17.008;2022-07-05T18:06:26;23.50;98.20
67077;DHT22;53991;46.364;17.008;2022-07-05T18:09:29;23.30;99.20
67077;DHT22;53991;46.364;17.008;2022-07-05T18:12:31;22.90;99.90
67077;DHT22;53991;46.364;17.008;2022-07-05T18:15:35;22.90;99.90
67077;DHT22;53991;46.364;17.008;2022-07-05T18:18:38;22.50;99.90
67077;DHT22;53991;46.364;17.008;2022-07-05T18:21:40;22.30;99.90
67077;DHT22;53991;46.364;17.008;2022-07-05T18:24:42;22.10;99.90
67077;DHT22;53991;46.364;17.008;2022-07-05T18:27:44;21.80;99.90
67077;DHT22;53991;46.364;17.008;2022-07-05T18:30:46;21.50;99.90
67077;DHT22;53991;46.364;17.008;2022-07-05T18:33:48;21.30;99.90
67077;DHT22;53991;46.364;17.008;2022-07-05T18:36:51;21.10;99.90
67077;DHT22;53991;46.364;17.008;2022-07-05T18:39:53;21.00;99.90
67077;DHT22;53991;46.364;17.008;2022-07-05T18:42:55;20.80;99.90
67077;DHT22;53991;46.364;17.008;2022-07-05T18:45:58;20.70;99.90
67077;DHT22;53991;46.364;17.008;2022-07-05T18:49:00;20.50;99.90
67077;DHT22;53991;46.364;17.008;2022-07-05T18:52:03;20.40;99.90
67077;DHT22;53991;46.364;17.008;2022-07-05T18:55:05;20.30;99.90
67077;DHT22;53991;46.364;17.008;2022-07-05T18:58:08;20.20;99.90
67077;DHT22;53991;46.364;17.008;2022-07-05T19:01:10;20.10;99.90
67077;DHT22;53991;46.364;17.008;2022-07-05T19:04:12;19.80;99.90
67077;DHT22;53991;46.364;17.008;2022-07-05T19:07:14;19.70;99.90
67077;DHT22;53991;46.364;17.008;2022-07-05T19:10:16;19.50;99.90
67077;DHT22;53991;46.364;17.008;2022-07-05T19:13:18;19.30;99.90
67077;DHT22;53991;46.364;17.008;2022-07-05T19:16:21;19.20;99.90
67077;DHT22;53991;46.364;17.008;2022-07-05T19:19:23;19.20;99.90